Portada
METAR-TAF:

METAR-TAF

Aeroports :

Pian Rosa, Itàlia

latitud: 45-56N, longitud: 007-42E, altitud: 3480 m

Observació

L'informe es va fer fa 46 minuts, a les 17:55 UTC
Vent 14 kt del Sud
Temperatura -9°C
Humitat 85%
Pressió 1033 hPa
Visibilitat 10 km o més
Núvols disperses a una alçada de 6000 ft

METAR: LIMH 211755Z 17014KT 9999 SCT060 M09/M11 Q1033 RMK BKN BKN120 MON LIB VAL NIL VIS MIN 9999

Hora: 19:41 (18:41 UTC)


TAF: manca

Observacions i pronòstics meteorològics de més de 4000 aeroports (METAR i TAF).

Les estacions disponibles són els punts grocs i vermells al mapa.

Posi el ratolí al punt desitjat per veure el nom de l'estació.

Feu clic per veure les observacions i els pronòstics meteorològics.

Per canviar el mapa: feu clic els botons verds amb una creu de color negre per apropar; al botó verd amb un guió per allunyar la imatge; o en les fletxes verdes per a mapes adjacents.


METAR-TAF: